sensor_id;sensor_type;location;lat;lon;timestamp;P1;durP1;ratioP1;P2;durP2;ratioP2
13327;SDS011;6733;51.044;3.746;2022-09-30T00:01:49;12.10;;;10.90;;
13327;SDS011;6733;51.044;3.746;2022-09-30T00:04:16;13.67;;;11.93;;
13327;SDS011;6733;51.044;3.746;2022-09-30T00:06:45;13.17;;;11.87;;
13327;SDS011;6733;51.044;3.746;2022-09-30T00:11:41;14.23;;;12.37;;
13327;SDS011;6733;51.044;3.746;2022-09-30T00:14:11;15.00;;;12.43;;
13327;SDS011;6733;51.044;3.746;2022-09-30T00:16:40;15.50;;;12.63;;
13327;SDS011;6733;51.044;3.746;2022-09-30T00:19:07;15.97;;;12.77;;
13327;SDS011;6733;51.044;3.746;2022-09-30T00:21:33;14.50;;;12.40;;
13327;SDS011;6733;51.044;3.746;2022-09-30T00:23:59;16.73;;;12.93;;
13327;SDS011;6733;51.044;3.746;2022-09-30T00:26:27;13.97;;;12.57;;
13327;SDS011;6733;51.044;3.746;2022-09-30T00:28:54;15.27;;;13.67;;
13327;SDS011;6733;51.044;3.746;2022-09-30T00:31:22;14.73;;;12.00;;
13327;SDS011;6733;51.044;3.746;2022-09-30T00:33:49;13.67;;;12.30;;
13327;SDS011;6733;51.044;3.746;2022-09-30T00:36:53;13.73;;;12.47;;
13327;SDS011;6733;51.044;3.746;2022-09-30T00:39:23;13.40;;;12.07;;
13327;SDS011;6733;51.044;3.746;2022-09-30T00:41:52;14.53;;;13.07;;
13327;SDS011;6733;51.044;3.746;2022-09-30T00:46:50;15.70;;;14.20;;
13327;SDS011;6733;51.044;3.746;2022-09-30T00:49:18;15.77;;;14.27;;
13327;SDS011;6733;51.044;3.746;2022-09-30T00:51:50;14.97;;;13.57;;
13327;SDS011;6733;51.044;3.746;2022-09-30T00:54:22;14.70;;;13.30;;
13327;SDS011;6733;51.044;3.746;2022-09-30T00:56:54;15.33;;;13.73;;
13327;SDS011;6733;51.044;3.746;2022-09-30T00:59:26;14.30;;;13.10;;
13327;SDS011;6733;51.044;3.746;2022-09-30T01:01:58;15.87;;;14.37;;
13327;SDS011;6733;51.044;3.746;2022-09-30T01:04:26;16.03;;;13.67;;
13327;SDS011;6733;51.044;3.746;2022-09-30T01:06:58;15.00;;;13.37;;
13327;SDS011;6733;51.044;3.746;2022-09-30T01:09:26;13.97;;;12.67;;
13327;SDS011;6733;51.044;3.746;2022-09-30T01:11:53;14.20;;;12.80;;
13327;SDS011;6733;51.044;3.746;2022-09-30T01:14:20;15.50;;;14.10;;
13327;SDS011;6733;51.044;3.746;2022-09-30T01:16:54;15.47;;;13.90;;
13327;SDS011;6733;51.044;3.746;2022-09-30T01:47:16;14.90;;;13.50;;
13327;SDS011;6733;51.044;3.746;2022-09-30T01:50:02;15.07;;;13.63;;
13327;SDS011;6733;51.044;3.746;2022-09-30T01:53:12;15.73;;;14.20;;
13327;SDS011;6733;51.044;3.746;2022-09-30T01:58:39;15.67;;;14.20;;
13327;SDS011;6733;51.044;3.746;2022-09-30T02:01:14;14.83;;;13.53;;
13327;SDS011;6733;51.044;3.746;2022-09-30T02:03:53;14.70;;;13.30;;
13327;SDS011;6733;51.044;3.746;2022-09-30T02:06:26;14.40;;;12.97;;
13327;SDS011;6733;51.044;3.746;2022-09-30T02:11:37;15.80;;;13.20;;
13327;SDS011;6733;51.044;3.746;2022-09-30T02:22:21;14.80;;;13.40;;
13327;SDS011;6733;51.044;3.746;2022-09-30T02:24:56;15.40;;;13.97;;
13327;SDS011;6733;51.044;3.746;2022-09-30T02:27:28;14.50;;;13.17;;
13327;SDS011;6733;51.044;3.746;2022-09-30T02:30:06;15.07;;;13.67;;
13327;SDS011;6733;51.044;3.746;2022-09-30T02:35:18;13.77;;;12.47;;
13327;SDS011;6733;51.044;3.746;2022-09-30T02:38:09;14.80;;;13.33;;
13327;SDS011;6733;51.044;3.746;2022-09-30T02:40:46;14.50;;;13.13;;
13327;SDS011;6733;51.044;3.746;2022-09-30T02:43:18;14.60;;;13.30;;
13327;SDS011;6733;51.044;3.746;2022-09-30T02:48:20;14.33;;;13.03;;
13327;SDS011;6733;51.044;3.746;2022-09-30T02:51:05;15.83;;;14.27;;
13327;SDS011;6733;51.044;3.746;2022-09-30T02:53:44;15.27;;;13.87;;
13327;SDS011;6733;51.044;3.746;2022-09-30T02:58:56;14.50;;;13.20;;
13327;SDS011;6733;51.044;3.746;2022-09-30T03:01:22;15.70;;;14.10;;
13327;SDS011;6733;51.044;3.746;2022-09-30T03:03:53;15.50;;;14.13;;
13327;SDS011;6733;51.044;3.746;2022-09-30T03:06:26;15.27;;;13.67;;
13327;SDS011;6733;51.044;3.746;2022-09-30T03:08:53;15.20;;;13.70;;
13327;SDS011;6733;51.044;3.746;2022-09-30T03:11:23;15.50;;;14.00;;
13327;SDS011;6733;51.044;3.746;2022-09-30T03:19:31;17.07;;;15.37;;
13327;SDS011;6733;51.044;3.746;2022-09-30T03:27:47;18.57;;;16.73;;
13327;SDS011;6733;51.044;3.746;2022-09-30T03:30:24;18.87;;;15.90;;
13327;SDS011;6733;51.044;3.746;2022-09-30T03:35:45;17.10;;;15.50;;
13327;SDS011;6733;51.044;3.746;2022-09-30T03:41:21;18.17;;;16.47;;
13327;SDS011;6733;51.044;3.746;2022-09-30T03:49:07;16.47;;;14.77;;
13327;SDS011;6733;51.044;3.746;2022-09-30T03:51:38;17.33;;;15.57;;
13327;SDS011;6733;51.044;3.746;2022-09-30T03:54:07;16.13;;;14.63;;
13327;SDS011;6733;51.044;3.746;2022-09-30T03:56:34;17.60;;;15.30;;
13327;SDS011;6733;51.044;3.746;2022-09-30T03:59:02;15.83;;;14.23;;
13327;SDS011;6733;51.044;3.746;2022-09-30T04:01:28;16.33;;;14.50;;
13327;SDS011;6733;51.044;3.746;2022-09-30T04:03:54;15.60;;;14.07;;
13327;SDS011;6733;51.044;3.746;2022-09-30T04:06:21;16.27;;;14.67;;
13327;SDS011;6733;51.044;3.746;2022-09-30T04:08:49;15.77;;;14.37;;
13327;SDS011;6733;51.044;3.746;2022-09-30T04:11:18;15.77;;;14.27;;
13327;SDS011;6733;51.044;3.746;2022-09-30T04:13:44;16.20;;;14.50;;
13327;SDS011;6733;51.044;3.746;2022-09-30T04:16:10;16.47;;;14.93;;
13327;SDS011;6733;51.044;3.746;2022-09-30T04:18:37;14.93;;;13.40;;
13327;SDS011;6733;51.044;3.746;2022-09-30T04:21:05;15.73;;;14.20;;
13327;SDS011;6733;51.044;3.746;2022-09-30T04:23:38;16.13;;;14.57;;
13327;SDS011;6733;51.044;3.746;2022-09-30T04:26:06;15.10;;;13.67;;
13327;SDS011;6733;51.044;3.746;2022-09-30T04:28:36;15.87;;;14.20;;
13327;SDS011;6733;51.044;3.746;2022-09-30T04:31:03;14.67;;;13.37;;
13327;SDS011;6733;51.044;3.746;2022-09-30T04:33:30;15.50;;;14.07;;
13327;SDS011;6733;51.044;3.746;2022-09-30T04:35:57;16.97;;;13.87;;
13327;SDS011;6733;51.044;3.746;2022-09-30T04:38:25;15.77;;;14.17;;
13327;SDS011;6733;51.044;3.746;2022-09-30T04:40:51;16.57;;;14.87;;
13327;SDS011;6733;51.044;3.746;2022-09-30T04:43:21;14.83;;;13.50;;
13327;SDS011;6733;51.044;3.746;2022-09-30T04:45:49;14.83;;;13.33;;
13327;SDS011;6733;51.044;3.746;2022-09-30T04:48:19;16.80;;;13.93;;
13327;SDS011;6733;51.044;3.746;2022-09-30T04:50:47;15.33;;;13.73;;
13327;SDS011;6733;51.044;3.746;2022-09-30T04:53:13;15.23;;;13.73;;
13327;SDS011;6733;51.044;3.746;2022-09-30T04:55:41;19.30;;;14.63;;
13327;SDS011;6733;51.044;3.746;2022-09-30T04:58:07;15.03;;;13.53;;
13327;SDS011;6733;51.044;3.746;2022-09-30T05:00:34;15.27;;;13.80;;
13327;SDS011;6733;51.044;3.746;2022-09-30T05:03:01;14.27;;;12.80;;
13327;SDS011;6733;51.044;3.746;2022-09-30T05:05:28;15.80;;;14.23;;
13327;SDS011;6733;51.044;3.746;2022-09-30T05:08:01;13.93;;;12.40;;
13327;SDS011;6733;51.044;3.746;2022-09-30T05:10:29;14.53;;;13.17;;
13327;SDS011;6733;51.044;3.746;2022-09-30T05:12:55;15.07;;;13.47;;
13327;SDS011;6733;51.044;3.746;2022-09-30T05:15:25;16.43;;;14.50;;
13327;SDS011;6733;51.044;3.746;2022-09-30T05:17:51;15.83;;;14.20;;
13327;SDS011;6733;51.044;3.746;2022-09-30T05:20:18;18.70;;;16.77;;
13327;SDS011;6733;51.044;3.746;2022-09-30T05:22:45;17.83;;;14.57;;
13327;SDS011;6733;51.044;3.746;2022-09-30T05:25:11;15.17;;;13.57;;
13327;SDS011;6733;51.044;3.746;2022-09-30T05:27:38;15.67;;;13.73;;
13327;SDS011;6733;51.044;3.746;2022-09-30T05:30:04;16.47;;;13.83;;
13327;SDS011;6733;51.044;3.746;2022-09-30T05:32:31;16.40;;;14.17;;
13327;SDS011;6733;51.044;3.746;2022-09-30T05:34:57;17.07;;;15.37;;
13327;SDS011;6733;51.044;3.746;2022-09-30T05:37:23;15.80;;;14.30;;
13327;SDS011;6733;51.044;3.746;2022-09-30T05:39:49;14.50;;;13.10;;
13327;SDS011;6733;51.044;3.746;2022-09-30T05:42:15;15.17;;;13.53;;
13327;SDS011;6733;51.044;3.746;2022-09-30T05:44:41;16.60;;;13.80;;
13327;SDS011;6733;51.044;3.746;2022-09-30T05:47:07;15.77;;;13.57;;
13327;SDS011;6733;51.044;3.746;2022-09-30T05:49:35;15.77;;;13.47;;
13327;SDS011;6733;51.044;3.746;2022-09-30T05:52:02;14.53;;;13.17;;
13327;SDS011;6733;51.044;3.746;2022-09-30T05:54:28;14.60;;;13.20;;
13327;SDS011;6733;51.044;3.746;2022-09-30T05:56:54;14.23;;;12.90;;
13327;SDS011;6733;51.044;3.746;2022-09-30T05:59:20;14.20;;;12.57;;
13327;SDS011;6733;51.044;3.746;2022-09-30T06:01:47;17.70;;;12.77;;
13327;SDS011;6733;51.044;3.746;2022-09-30T06:04:13;13.90;;;12.57;;
13327;SDS011;6733;51.044;3.746;2022-09-30T06:06:39;13.70;;;12.40;;
13327;SDS011;6733;51.044;3.746;2022-09-30T06:09:05;17.90;;;12.87;;
13327;SDS011;6733;51.044;3.746;2022-09-30T06:11:31;13.90;;;12.50;;
13327;SDS011;6733;51.044;3.746;2022-09-30T06:13:57;15.47;;;13.30;;
13327;SDS011;6733;51.044;3.746;2022-09-30T06:16:23;16.10;;;14.23;;
13327;SDS011;6733;51.044;3.746;2022-09-30T06:18:49;19.23;;;13.47;;
13327;SDS011;6733;51.044;3.746;2022-09-30T06:21:16;16.13;;;14.43;;
13327;SDS011;6733;51.044;3.746;2022-09-30T06:23:42;14.87;;;13.50;;
13327;SDS011;6733;51.044;3.746;2022-09-30T06:26:10;15.73;;;13.60;;
13327;SDS011;6733;51.044;3.746;2022-09-30T06:28:37;16.83;;;13.70;;
13327;SDS011;6733;51.044;3.746;2022-09-30T06:31:04;20.23;;;13.87;;
13327;SDS011;6733;51.044;3.746;2022-09-30T06:33:31;15.00;;;13.10;;
13327;SDS011;6733;51.044;3.746;2022-09-30T06:35:57;16.30;;;13.47;;
13327;SDS011;6733;51.044;3.746;2022-09-30T06:38:26;20.00;;;14.13;;
13327;SDS011;6733;51.044;3.746;2022-09-30T06:40:53;16.20;;;13.20;;
13327;SDS011;6733;51.044;3.746;2022-09-30T06:43:21;16.33;;;13.73;;
13327;SDS011;6733;51.044;3.746;2022-09-30T06:45:47;14.70;;;13.00;;
13327;SDS011;6733;51.044;3.746;2022-09-30T06:48:17;22.73;;;17.17;;
13327;SDS011;6733;51.044;3.746;2022-09-30T06:50:43;19.90;;;12.77;;
13327;SDS011;6733;51.044;3.746;2022-09-30T06:53:11;15.53;;;13.47;;
13327;SDS011;6733;51.044;3.746;2022-09-30T06:55:38;15.67;;;13.17;;
13327;SDS011;6733;51.044;3.746;2022-09-30T06:58:08;14.37;;;12.87;;
13327;SDS011;6733;51.044;3.746;2022-09-30T07:00:39;13.73;;;12.27;;
13327;SDS011;6733;51.044;3.746;2022-09-30T07:03:05;18.80;;;13.90;;
13327;SDS011;6733;51.044;3.746;2022-09-30T07:05:36;17.93;;;13.57;;
13327;SDS011;6733;51.044;3.746;2022-09-30T07:08:02;15.60;;;13.20;;
13327;SDS011;6733;51.044;3.746;2022-09-30T07:10:29;14.87;;;13.40;;
13327;SDS011;6733;51.044;3.746;2022-09-30T07:12:55;17.20;;;14.07;;
13327;SDS011;6733;51.044;3.746;2022-09-30T07:15:21;15.83;;;14.13;;
13327;SDS011;6733;51.044;3.746;2022-09-30T07:17:54;17.27;;;14.10;;
13327;SDS011;6733;51.044;3.746;2022-09-30T07:20:23;17.23;;;13.73;;
13327;SDS011;6733;51.044;3.746;2022-09-30T07:22:49;18.53;;;14.80;;
13327;SDS011;6733;51.044;3.746;2022-09-30T07:25:16;19.90;;;14.17;;
13327;SDS011;6733;51.044;3.746;2022-09-30T07:27:42;17.53;;;13.47;;
13327;SDS011;6733;51.044;3.746;2022-09-30T07:30:09;15.30;;;13.70;;
13327;SDS011;6733;51.044;3.746;2022-09-30T07:32:36;15.57;;;13.23;;
13327;SDS011;6733;51.044;3.746;2022-09-30T07:35:02;14.43;;;12.93;;
13327;SDS011;6733;51.044;3.746;2022-09-30T07:37:29;18.67;;;13.63;;
13327;SDS011;6733;51.044;3.746;2022-09-30T07:40:04;16.03;;;13.87;;
13327;SDS011;6733;51.044;3.746;2022-09-30T07:42:32;17.80;;;13.03;;
13327;SDS011;6733;51.044;3.746;2022-09-30T07:45:01;16.27;;;13.07;;
13327;SDS011;6733;51.044;3.746;2022-09-30T07:47:27;14.13;;;11.90;;
13327;SDS011;6733;51.044;3.746;2022-09-30T07:49:53;16.57;;;12.50;;
13327;SDS011;6733;51.044;3.746;2022-09-30T07:52:19;17.77;;;12.23;;
13327;SDS011;6733;51.044;3.746;2022-09-30T07:54:45;15.70;;;10.67;;
13327;SDS011;6733;51.044;3.746;2022-09-30T07:57:11;15.37;;;10.97;;
13327;SDS011;6733;51.044;3.746;2022-09-30T07:59:38;13.13;;;11.03;;
13327;SDS011;6733;51.044;3.746;2022-09-30T08:02:06;12.63;;;10.57;;
13327;SDS011;6733;51.044;3.746;2022-09-30T08:04:35;13.77;;;11.00;;
13327;SDS011;6733;51.044;3.746;2022-09-30T08:07:01;12.03;;;10.27;;
13327;SDS011;6733;51.044;3.746;2022-09-30T08:09:28;15.13;;;10.83;;
13327;SDS011;6733;51.044;3.746;2022-09-30T08:11:55;13.37;;;10.63;;
13327;SDS011;6733;51.044;3.746;2022-09-30T08:14:22;11.07;;;9.73;;
13327;SDS011;6733;51.044;3.746;2022-09-30T08:19:20;13.57;;;10.43;;
13327;SDS011;6733;51.044;3.746;2022-09-30T08:21:48;13.87;;;9.87;;
13327;SDS011;6733;51.044;3.746;2022-09-30T08:24:15;11.53;;;10.13;;
13327;SDS011;6733;51.044;3.746;2022-09-30T08:26:41;15.57;;;10.03;;
13327;SDS011;6733;51.044;3.746;2022-09-30T08:29:08;16.20;;;10.53;;
13327;SDS011;6733;51.044;3.746;2022-09-30T08:31:39;17.10;;;9.90;;
13327;SDS011;6733;51.044;3.746;2022-09-30T08:34:06;13.67;;;10.30;;
13327;SDS011;6733;51.044;3.746;2022-09-30T08:36:32;12.77;;;10.20;;
13327;SDS011;6733;51.044;3.746;2022-09-30T08:38:58;14.17;;;9.27;;
13327;SDS011;6733;51.044;3.746;2022-09-30T08:52:19;10.83;;;8.87;;
13327;SDS011;6733;51.044;3.746;2022-09-30T08:54:51;10.77;;;8.53;;
13327;SDS011;6733;51.044;3.746;2022-09-30T08:57:19;12.30;;;8.63;;
13327;SDS011;6733;51.044;3.746;2022-09-30T08:59:48;9.90;;;8.70;;
13327;SDS011;6733;51.044;3.746;2022-09-30T09:08:24;10.43;;;8.77;;
13327;SDS011;6733;51.044;3.746;2022-09-30T09:18:57;8.83;;;7.83;;
13327;SDS011;6733;51.044;3.746;2022-09-30T09:24:02;13.20;;;8.80;;
13327;SDS011;6733;51.044;3.746;2022-09-30T09:26:37;9.00;;;7.83;;
13327;SDS011;6733;51.044;3.746;2022-09-30T09:32:08;10.90;;;8.93;;
13327;SDS011;6733;51.044;3.746;2022-09-30T09:34:42;12.37;;;8.83;;
13327;SDS011;6733;51.044;3.746;2022-09-30T09:47:52;10.20;;;7.30;;
13327;SDS011;6733;51.044;3.746;2022-09-30T09:50:36;8.00;;;7.10;;
13327;SDS011;6733;51.044;3.746;2022-09-30T09:53:14;7.20;;;6.50;;
13327;SDS011;6733;51.044;3.746;2022-09-30T09:55:42;7.27;;;6.57;;
13327;SDS011;6733;51.044;3.746;2022-09-30T09:58:11;7.23;;;5.97;;
13327;SDS011;6733;51.044;3.746;2022-09-30T10:00:39;6.97;;;5.73;;
13327;SDS011;6733;51.044;3.746;2022-09-30T10:03:16;7.27;;;6.30;;
13327;SDS011;6733;51.044;3.746;2022-09-30T10:05:59;8.60;;;6.57;;
13327;SDS011;6733;51.044;3.746;2022-09-30T10:08:29;9.80;;;5.87;;
13327;SDS011;6733;51.044;3.746;2022-09-30T10:10:58;5.37;;;4.83;;
13327;SDS011;6733;51.044;3.746;2022-09-30T10:14:00;4.87;;;4.47;;
13327;SDS011;6733;51.044;3.746;2022-09-30T10:16:39;5.93;;;5.13;;
13327;SDS011;6733;51.044;3.746;2022-09-30T10:19:17;9.67;;;5.40;;
13327;SDS011;6733;51.044;3.746;2022-09-30T10:21:45;8.33;;;5.60;;
13327;SDS011;6733;51.044;3.746;2022-09-30T10:24:27;7.67;;;5.60;;
13327;SDS011;6733;51.044;3.746;2022-09-30T10:26:55;7.60;;;5.70;;
13327;SDS011;6733;51.044;3.746;2022-09-30T10:31:51;8.27;;;6.00;;
13327;SDS011;6733;51.044;3.746;2022-09-30T10:36:54;8.13;;;6.20;;
13327;SDS011;6733;51.044;3.746;2022-09-30T10:39:25;8.70;;;6.23;;
13327;SDS011;6733;51.044;3.746;2022-09-30T10:44:25;6.97;;;6.27;;
13327;SDS011;6733;51.044;3.746;2022-09-30T10:46:57;8.80;;;6.60;;
13327;SDS011;6733;51.044;3.746;2022-09-30T10:49:30;12.07;;;6.40;;
13327;SDS011;6733;51.044;3.746;2022-09-30T10:52:13;12.60;;;6.40;;
13327;SDS011;6733;51.044;3.746;2022-09-30T10:54:52;8.50;;;6.73;;
13327;SDS011;6733;51.044;3.746;2022-09-30T10:57:24;8.03;;;7.23;;
13327;SDS011;6733;51.044;3.746;2022-09-30T11:02:29;11.20;;;7.00;;
13327;SDS011;6733;51.044;3.746;2022-09-30T11:13:19;10.03;;;7.40;;
13327;SDS011;6733;51.044;3.746;2022-09-30T11:18:37;8.53;;;7.40;;
13327;SDS011;6733;51.044;3.746;2022-09-30T11:21:45;9.03;;;6.97;;
13327;SDS011;6733;51.044;3.746;2022-09-30T11:37:28;12.50;;;5.73;;
13327;SDS011;6733;51.044;3.746;2022-09-30T11:43:01;5.83;;;4.87;;
13327;SDS011;6733;51.044;3.746;2022-09-30T11:45:38;5.93;;;4.90;;
13327;SDS011;6733;51.044;3.746;2022-09-30T11:54:04;5.40;;;4.57;;
13327;SDS011;6733;51.044;3.746;2022-09-30T11:56:53;6.03;;;3.93;;
13327;SDS011;6733;51.044;3.746;2022-09-30T11:59:30;5.23;;;3.90;;
13327;SDS011;6733;51.044;3.746;2022-09-30T12:02:03;5.17;;;4.47;;
13327;SDS011;6733;51.044;3.746;2022-09-30T12:04:57;5.90;;;3.90;;
13327;SDS011;6733;51.044;3.746;2022-09-30T12:07:49;6.00;;;4.00;;
13327;SDS011;6733;51.044;3.746;2022-09-30T12:12:53;4.87;;;3.70;;
13327;SDS011;6733;51.044;3.746;2022-09-30T12:15:25;5.33;;;4.20;;
13327;SDS011;6733;51.044;3.746;2022-09-30T12:17:54;6.93;;;4.37;;
13327;SDS011;6733;51.044;3.746;2022-09-30T12:20:35;4.97;;;4.30;;
13327;SDS011;6733;51.044;3.746;2022-09-30T12:23:14;6.27;;;4.47;;
13327;SDS011;6733;51.044;3.746;2022-09-30T12:28:23;4.90;;;4.40;;
13327;SDS011;6733;51.044;3.746;2022-09-30T12:48:02;4.27;;;3.87;;
13327;SDS011;6733;51.044;3.746;2022-09-30T12:50:40;3.83;;;3.53;;
13327;SDS011;6733;51.044;3.746;2022-09-30T12:53:17;4.90;;;4.23;;
13327;SDS011;6733;51.044;3.746;2022-09-30T12:55:48;6.13;;;3.73;;
13327;SDS011;6733;51.044;3.746;2022-09-30T12:58:18;6.93;;;4.67;;
13327;SDS011;6733;51.044;3.746;2022-09-30T13:01:02;4.63;;;4.13;;
13327;SDS011;6733;51.044;3.746;2022-09-30T13:03:45;6.80;;;4.03;;
13327;SDS011;6733;51.044;3.746;2022-09-30T13:06:15;3.97;;;3.13;;
13327;SDS011;6733;51.044;3.746;2022-09-30T13:08:44;5.77;;;4.07;;
13327;SDS011;6733;51.044;3.746;2022-09-30T13:11:40;4.57;;;3.50;;
13327;SDS011;6733;51.044;3.746;2022-09-30T13:29:56;3.70;;;3.30;;
13327;SDS011;6733;51.044;3.746;2022-09-30T13:32:35;4.00;;;3.27;;
13327;SDS011;6733;51.044;3.746;2022-09-30T13:35:11;5.67;;;3.03;;
13327;SDS011;6733;51.044;3.746;2022-09-30T13:43:17;4.40;;;2.80;;
13327;SDS011;6733;51.044;3.746;2022-09-30T13:45:45;6.23;;;2.50;;
13327;SDS011;6733;51.044;3.746;2022-09-30T13:48:17;6.80;;;2.57;;
13327;SDS011;6733;51.044;3.746;2022-09-30T13:50:49;4.83;;;2.50;;
13327;SDS011;6733;51.044;3.746;2022-09-30T13:56:07;5.40;;;3.00;;
13327;SDS011;6733;51.044;3.746;2022-09-30T14:01:41;2.77;;;2.57;;
13327;SDS011;6733;51.044;3.746;2022-09-30T14:07:02;2.83;;;2.50;;
13327;SDS011;6733;51.044;3.746;2022-09-30T14:22:49;4.33;;;2.80;;
13327;SDS011;6733;51.044;3.746;2022-09-30T14:25:17;3.90;;;3.20;;
13327;SDS011;6733;51.044;3.746;2022-09-30T14:27:51;6.20;;;2.73;;
13327;SDS011;6733;51.044;3.746;2022-09-30T14:30:39;3.30;;;2.73;;
13327;SDS011;6733;51.044;3.746;2022-09-30T14:33:11;3.00;;;2.70;;
13327;SDS011;6733;51.044;3.746;2022-09-30T14:35:53;6.10;;;2.97;;
13327;SDS011;6733;51.044;3.746;2022-09-30T14:40:52;5.00;;;3.30;;
13327;SDS011;6733;51.044;3.746;2022-09-30T14:43:22;4.47;;;2.57;;
13327;SDS011;6733;51.044;3.746;2022-09-30T14:45:53;3.57;;;2.83;;
13327;SDS011;6733;51.044;3.746;2022-09-30T14:51:11;3.13;;;2.43;;
13327;SDS011;6733;51.044;3.746;2022-09-30T14:53:43;4.30;;;2.60;;
13327;SDS011;6733;51.044;3.746;2022-09-30T14:56:24;4.03;;;2.40;;
13327;SDS011;6733;51.044;3.746;2022-09-30T14:58:51;4.30;;;2.70;;
13327;SDS011;6733;51.044;3.746;2022-09-30T15:01:21;3.40;;;2.50;;
13327;SDS011;6733;51.044;3.746;2022-09-30T15:03:51;5.10;;;2.73;;
13327;SDS011;6733;51.044;3.746;2022-09-30T15:06:22;5.17;;;3.70;;
13327;SDS011;6733;51.044;3.746;2022-09-30T15:08:58;2.93;;;2.57;;
13327;SDS011;6733;51.044;3.746;2022-09-30T15:11:29;3.30;;;2.20;;
13327;SDS011;6733;51.044;3.746;2022-09-30T15:17:39;5.30;;;2.97;;
13327;SDS011;6733;51.044;3.746;2022-09-30T15:19:42;3.83;;;2.37;;
13327;SDS011;6733;51.044;3.746;2022-09-30T15:22:09;2.50;;;2.30;;
13327;SDS011;6733;51.044;3.746;2022-09-30T15:24:38;2.87;;;2.30;;
13327;SDS011;6733;51.044;3.746;2022-09-30T15:27:05;2.40;;;2.20;;
13327;SDS011;6733;51.044;3.746;2022-09-30T15:29:52;3.90;;;2.27;;
13327;SDS011;6733;51.044;3.746;2022-09-30T15:32:22;2.33;;;2.07;;
13327;SDS011;6733;51.044;3.746;2022-09-30T15:34:51;3.30;;;2.10;;
13327;SDS011;6733;51.044;3.746;2022-09-30T15:37:19;2.70;;;2.20;;
13327;SDS011;6733;51.044;3.746;2022-09-30T15:39:48;10.10;;;2.47;;
13327;SDS011;6733;51.044;3.746;2022-09-30T15:42:38;3.63;;;2.23;;
13327;SDS011;6733;51.044;3.746;2022-09-30T15:47:58;2.20;;;1.80;;
13327;SDS011;6733;51.044;3.746;2022-09-30T15:53:24;6.87;;;1.83;;
13327;SDS011;6733;51.044;3.746;2022-09-30T15:55:58;2.80;;;2.07;;
13327;SDS011;6733;51.044;3.746;2022-09-30T15:58:40;3.37;;;2.20;;
13327;SDS011;6733;51.044;3.746;2022-09-30T16:03:56;3.53;;;2.00;;
13327;SDS011;6733;51.044;3.746;2022-09-30T16:11:35;3.27;;;1.90;;
13327;SDS011;6733;51.044;3.746;2022-09-30T16:14:06;2.20;;;2.00;;
13327;SDS011;6733;51.044;3.746;2022-09-30T16:16:41;15.10;;;3.13;;
13327;SDS011;6733;51.044;3.746;2022-09-30T16:19:16;3.93;;;1.80;;
13327;SDS011;6733;51.044;3.746;2022-09-30T16:21:46;4.83;;;2.30;;
13327;SDS011;6733;51.044;3.746;2022-09-30T16:26:45;3.83;;;2.33;;
13327;SDS011;6733;51.044;3.746;2022-09-30T16:29:15;4.07;;;2.27;;
13327;SDS011;6733;51.044;3.746;2022-09-30T16:31:42;3.73;;;2.07;;
13327;SDS011;6733;51.044;3.746;2022-09-30T16:34:17;3.00;;;2.30;;
13327;SDS011;6733;51.044;3.746;2022-09-30T16:36:44;3.70;;;2.33;;
13327;SDS011;6733;51.044;3.746;2022-09-30T16:39:10;2.40;;;2.10;;
13327;SDS011;6733;51.044;3.746;2022-09-30T16:41:39;2.90;;;2.37;;
13327;SDS011;6733;51.044;3.746;2022-09-30T16:44:05;3.70;;;2.20;;
13327;SDS011;6733;51.044;3.746;2022-09-30T16:46:31;7.27;;;2.30;;
13327;SDS011;6733;51.044;3.746;2022-09-30T16:48:58;3.03;;;2.10;;
13327;SDS011;6733;51.044;3.746;2022-09-30T16:51:25;2.13;;;1.93;;
13327;SDS011;6733;51.044;3.746;2022-09-30T16:56:20;3.23;;;2.20;;
13327;SDS011;6733;51.044;3.746;2022-09-30T16:58:46;4.20;;;2.20;;
13327;SDS011;6733;51.044;3.746;2022-09-30T17:01:19;2.70;;;2.27;;
13327;SDS011;6733;51.044;3.746;2022-09-30T17:03:47;2.60;;;2.40;;
13327;SDS011;6733;51.044;3.746;2022-09-30T17:06:17;3.70;;;2.33;;
13327;SDS011;6733;51.044;3.746;2022-09-30T17:08:48;2.87;;;2.23;;
13327;SDS011;6733;51.044;3.746;2022-09-30T17:11:15;3.73;;;2.57;;
13327;SDS011;6733;51.044;3.746;2022-09-30T17:13:41;3.00;;;2.60;;
13327;SDS011;6733;51.044;3.746;2022-09-30T17:16:07;4.57;;;2.70;;
13327;SDS011;6733;51.044;3.746;2022-09-30T17:18:33;3.57;;;2.70;;
13327;SDS011;6733;51.044;3.746;2022-09-30T17:20:59;4.03;;;2.40;;
13327;SDS011;6733;51.044;3.746;2022-09-30T17:23:26;4.10;;;2.87;;
13327;SDS011;6733;51.044;3.746;2022-09-30T17:25:52;2.50;;;2.30;;
13327;SDS011;6733;51.044;3.746;2022-09-30T17:28:19;4.87;;;2.73;;
13327;SDS011;6733;51.044;3.746;2022-09-30T17:30:46;2.53;;;2.20;;
13327;SDS011;6733;51.044;3.746;2022-09-30T17:33:14;5.60;;;2.67;;
13327;SDS011;6733;51.044;3.746;2022-09-30T17:35:40;3.67;;;2.77;;
13327;SDS011;6733;51.044;3.746;2022-09-30T17:38:07;3.90;;;2.60;;
13327;SDS011;6733;51.044;3.746;2022-09-30T17:40:34;4.53;;;2.77;;
13327;SDS011;6733;51.044;3.746;2022-09-30T17:43:36;3.17;;;2.67;;
13327;SDS011;6733;51.044;3.746;2022-09-30T17:46:02;3.17;;;2.77;;
13327;SDS011;6733;51.044;3.746;2022-09-30T17:48:28;4.50;;;3.03;;
13327;SDS011;6733;51.044;3.746;2022-09-30T17:50:54;4.00;;;3.10;;
13327;SDS011;6733;51.044;3.746;2022-09-30T17:53:21;2.83;;;2.57;;
13327;SDS011;6733;51.044;3.746;2022-09-30T17:55:48;3.70;;;3.00;;
13327;SDS011;6733;51.044;3.746;2022-09-30T17:58:26;2.90;;;2.60;;
13327;SDS011;6733;51.044;3.746;2022-09-30T18:00:53;3.13;;;2.20;;
13327;SDS011;6733;51.044;3.746;2022-09-30T18:03:22;3.50;;;2.50;;
13327;SDS011;6733;51.044;3.746;2022-09-30T18:05:55;6.10;;;3.20;;
13327;SDS011;6733;51.044;3.746;2022-09-30T18:08:23;3.13;;;2.33;;
13327;SDS011;6733;51.044;3.746;2022-09-30T18:10:50;3.47;;;2.60;;
13327;SDS011;6733;51.044;3.746;2022-09-30T18:13:16;5.30;;;2.90;;
13327;SDS011;6733;51.044;3.746;2022-09-30T18:15:46;3.70;;;2.83;;
13327;SDS011;6733;51.044;3.746;2022-09-30T18:18:12;3.70;;;2.30;;
13327;SDS011;6733;51.044;3.746;2022-09-30T18:20:42;3.23;;;2.57;;
13327;SDS011;6733;51.044;3.746;2022-09-30T18:23:09;2.87;;;2.40;;
13327;SDS011;6733;51.044;3.746;2022-09-30T18:25:36;3.00;;;2.60;;
13327;SDS011;6733;51.044;3.746;2022-09-30T18:28:04;2.97;;;2.40;;
13327;SDS011;6733;51.044;3.746;2022-09-30T18:30:33;3.40;;;2.97;;
13327;SDS011;6733;51.044;3.746;2022-09-30T18:33:00;4.77;;;2.83;;
13327;SDS011;6733;51.044;3.746;2022-09-30T18:35:27;5.50;;;2.57;;
13327;SDS011;6733;51.044;3.746;2022-09-30T18:37:54;3.50;;;2.57;;
13327;SDS011;6733;51.044;3.746;2022-09-30T18:40:22;2.30;;;2.10;;
13327;SDS011;6733;51.044;3.746;2022-09-30T18:42:57;3.40;;;2.20;;
13327;SDS011;6733;51.044;3.746;2022-09-30T18:45:29;3.80;;;2.40;;
13327;SDS011;6733;51.044;3.746;2022-09-30T18:48:01;5.13;;;2.40;;
13327;SDS011;6733;51.044;3.746;2022-09-30T18:50:29;3.83;;;2.77;;
13327;SDS011;6733;51.044;3.746;2022-09-30T18:52:58;4.20;;;2.53;;
13327;SDS011;6733;51.044;3.746;2022-09-30T18:55:28;2.77;;;2.50;;
13327;SDS011;6733;51.044;3.746;2022-09-30T18:57:55;3.60;;;2.93;;
13327;SDS011;6733;51.044;3.746;2022-09-30T19:00:23;2.63;;;2.17;;
13327;SDS011;6733;51.044;3.746;2022-09-30T19:02:51;4.50;;;2.43;;
13327;SDS011;6733;51.044;3.746;2022-09-30T19:05:20;3.20;;;2.60;;
13327;SDS011;6733;51.044;3.746;2022-09-30T19:07:46;4.30;;;2.60;;
13327;SDS011;6733;51.044;3.746;2022-09-30T19:10:13;4.67;;;2.87;;
13327;SDS011;6733;51.044;3.746;2022-09-30T19:12:40;5.07;;;2.60;;
13327;SDS011;6733;51.044;3.746;2022-09-30T19:15:11;3.13;;;2.63;;
13327;SDS011;6733;51.044;3.746;2022-09-30T19:17:40;5.73;;;2.80;;
13327;SDS011;6733;51.044;3.746;2022-09-30T19:20:07;3.20;;;2.90;;
13327;SDS011;6733;51.044;3.746;2022-09-30T19:22:34;6.23;;;3.07;;
13327;SDS011;6733;51.044;3.746;2022-09-30T19:25:04;5.43;;;3.07;;